Nashville, Tennessee
Traffic Map
Current Weather Conditions
Nashville, Tennessee
Overcast
Overcast
49°
Feels Like: 43°
Wind Chill: 43° Ceiling: 23000
Heat Index: 49° Visibility: 10mi
Dew Point: 25° Wind: 15mph
Humidity: 39% Direction: 210° (SSW)
Pressure: 30.11in Gusts: 20mph
Raw Report DataKBNA 121653Z 21013G17KT 10SM SCT035 SCT060 OVC230 09/M04 A3011 RMK AO2 SLP198 T00941039
Traffic Incident Summary
Active as of:
Severity:
Category:
InformationThere was an issue retrieving the traffic information for this location. Please try a different location or try again shortly.
Advertisements